Time;durP1;ratioP1;P1;durP2;ratioP2;P2;SDS_P1;SDS_P2;PMS_P1;PMS_P2;Temp;Humidity;BMP_temperature;BMP_pressure;BME280_temperature;BME280_humidity;BME280_pressure;Samples;Min_cycle;Max_cycle;Signal;HPM_P1;HPM_P2
2023/03/17 00:29:00;;;;;;;;;;;;;;;7.17;58.77;99621.75;1088915;54;19958;-80
2023/03/17 00:37:54;;;;;;;;;;;;;;;7.22;58.54;99606.22;1086873;54;19958;-80
2023/03/17 00:38:58;;;;;;;;;;;;;;;7.23;58.67;99607.91;1088204;46;19943;-78
2023/03/17 00:49:53;;;;;;;;;;;;;;;7.10;59.37;99613.47;1080015;54;19982;-80
2023/03/17 01:03:13;;;;;;;;;;;;;;;6.89;59.87;99592.25;1087192;54;20014;-80
2023/03/17 01:12:17;;;;;;;;;;;;;;;6.87;60.31;99589.69;1087408;54;19939;-80
2023/03/17 01:13:18;;;;;;;;;;;;;;;6.91;60.25;99592.94;1086905;54;19962;-81
2023/03/17 01:49:21;;;;;;;;;;;;;;;6.76;61.15;99559.72;1091002;46;19962;-80
2023/03/17 01:50:23;;;;;;;;;;;;;;;6.76;61.17;99563.22;1088872;54;19954;-80
2023/03/17 01:51:31;;;;;;;;;;;;;;;6.76;61.07;99563.22;1089216;54;19978;-79
2023/03/17 01:58:58;;;;;;;;;;;;;;;6.84;60.88;99543.97;1089657;54;19965;-83
2023/03/17 02:01:44;;;;;;;;;;;;;;;6.89;60.81;99547.06;1089466;54;20603;-81
2023/03/17 02:02:46;;;;;;;;;;;;;;;6.93;60.79;99539.66;1088056;54;19946;-80
2023/03/17 02:03:57;;;;;;;;;;;;;;;6.92;61.14;99540.66;1089408;54;20027;-84
2023/03/17 02:05:05;;;;;;;;;;;;;;;6.93;60.77;99534.34;1088991;54;19969;-81
2023/03/17 02:06:06;;;;;;;;;;;;;;;6.92;61.17;99538.81;1089106;54;19955;-79
2023/03/17 04:41:09;;;;;;;;;;;;;;;;;;;;;
2023/03/17 05:44:58;;;;;;;;;;;;;;;5.24;68.53;99516.47;1087622;54;19943;-80
2023/03/17 05:46:03;;;;;;;;;;;;;;;5.25;68.31;99519.00;1089877;47;19939;-80
2023/03/17 05:47:07;;;;;;;;;;;;;;;5.21;68.98;99506.97;1090636;47;19939;-80
2023/03/17 05:48:08;;;;;;;;;;;;;;;5.18;68.85;99516.97;1088022;54;19943;-81
2023/03/17 05:49:12;;;;;;;;;;;;;;;5.15;69.14;99512.75;1088088;54;19942;-79
2023/03/17 07:45:29;;;;;;;;;;;;;;;7.48;60.92;99515.31;1088101;54;19938;-81
2023/03/17 07:46:33;;;;;;;;;;;;;;;7.49;60.75;99499.25;1087910;54;19977;-84
2023/03/17 07:47:35;;;;;;;;;;;;;;;7.52;60.57;99503.44;1088469;54;19934;-83
2023/03/17 07:48:40;;;;;;;;;;;;;;;7.57;60.95;99493.19;1086513;54;19973;-80
2023/03/17 07:49:42;;;;;;;;;;;;;;;7.65;60.97;99504.00;1087773;54;19957;-83
2023/03/17 07:50:46;;;;;;;;;;;;;;;7.68;60.45;99500.22;1102381;39;20350;-83
2023/03/17 07:51:50;;;;;;;;;;;;;;;7.69;60.93;99499.25;1088506;54;20637;-81
2023/03/17 07:52:56;;;;;;;;;;;;;;;7.78;60.77;99490.44;1088622;54;20441;-82
2023/03/17 08:44:33;;;;;;;;;;;;;;;11.48;50.69;99469.19;1085027;54;19950;-79
2023/03/17 08:45:35;;;;;;;;;;;;;;;11.68;50.91;99468.88;1084916;54;19970;-80
2023/03/17 08:46:39;;;;;;;;;;;;;;;11.85;50.79;99464.38;1084864;54;20006;-79
2023/03/17 08:47:41;;;;;;;;;;;;;;;12.02;50.37;99460.72;1087563;46;19942;-79
2023/03/17 08:48:52;;;;;;;;;;;;;;;11.99;49.36;99457.53;1088043;46;19950;-79
2023/03/17 08:49:59;;;;;;;;;;;;;;;12.10;49.60;99456.34;1087517;54;19950;-79
2023/03/17 08:51:00;;;;;;;;;;;;;;;12.15;49.23;99452.16;1087309;54;19957;-79
2023/03/17 08:52:04;;;;;;;;;;;;;;;12.12;49.70;99451.66;1086671;54;19943;-80
2023/03/17 08:53:08;;;;;;;;;;;;;;;12.20;49.70;99451.66;1085083;54;20333;-79
2023/03/17 08:54:12;;;;;;;;;;;;;;;12.23;49.08;99447.81;1085144;54;19954;-80
2023/03/17 08:55:15;;;;;;;;;;;;;;;12.20;48.81;99456.19;1085760;39;20344;-80
2023/03/17 08:56:18;;;;;;;;;;;;;;;12.08;48.79;99453.84;1085052;54;19951;-79
2023/03/17 08:57:21;;;;;;;;;;;;;;;12.03;48.63;99453.53;1084465;54;19954;-79
2023/03/17 08:58:25;;;;;;;;;;;;;;;12.15;49.15;99449.47;1084681;54;20491;-80
2023/03/17 08:59:29;;;;;;;;;;;;;;;12.14;48.36;99450.50;1084795;54;20582;-78
2023/03/17 09:00:32;;;;;;;;;;;;;;;12.17;48.45;99449.34;1084683;54;19977;-79
2023/03/17 09:01:36;;;;;;;;;;;;;;;12.24;49.37;99454.81;1085641;54;20061;-79
2023/03/17 09:02:38;;;;;;;;;;;;;;;12.19;47.75;99447.31;1085691;54;19959;-77
2023/03/17 09:03:42;;;;;;;;;;;;;;;12.22;48.33;99440.78;1084640;54;19950;-78
2023/03/17 09:04:46;;;;;;;;;;;;;;;12.33;48.28;99441.25;1084811;54;19962;-77
2023/03/17 09:05:48;;;;;;;;;;;;;;;12.43;48.04;99446.41;1084519;54;20536;-77
2023/03/17 09:06:53;;;;;;;;;;;;;;;12.58;48.06;99449.22;1084689;54;19954;-80
2023/03/17 09:07:55;;;;;;;;;;;;;;;12.77;47.79;99441.78;1085097;54;19947;-78
2023/03/17 09:08:59;;;;;;;;;;;;;;;12.83;46.89;99448.31;1085236;54;19953;-78
2023/03/17 09:10:02;;;;;;;;;;;;;;;12.86;47.02;99446.09;1084469;54;19950;-78
2023/03/17 09:11:07;;;;;;;;;;;;;;;12.90;46.72;99450.13;1084914;54;20540;-79
2023/03/17 09:12:11;;;;;;;;;;;;;;;13.19;46.78;99455.84;1085001;54;19974;-79
2023/03/17 09:13:12;;;;;;;;;;;;;;;13.44;46.37;99445.00;1084697;54;19978;-78
2023/03/17 09:14:16;;;;;;;;;;;;;;;13.32;45.86;99449.91;1084151;54;19965;-78
2023/03/17 09:15:17;;;;;;;;;;;;;;;13.48;46.08;99447.16;1084216;54;19947;-78
2023/03/17 09:16:25;;;;;;;;;;;;;;;13.71;45.14;99443.59;1084951;54;19951;-78
2023/03/17 09:17:29;;;;;;;;;;;;;;;13.92;45.54;99447.47;1084812;54;20473;-79
2023/03/17 09:18:31;;;;;;;;;;;;;;;14.08;45.65;99447.31;1086112;39;20432;-79
2023/03/17 09:19:35;;;;;;;;;;;;;;;14.02;43.57;99445.38;1085006;54;19965;-78
2023/03/17 09:20:37;;;;;;;;;;;;;;;14.18;44.54;99447.91;1086723;54;19943;-78
2023/03/17 09:21:40;;;;;;;;;;;;;;;14.08;43.82;99441.94;1087466;47;19949;-75
2023/03/17 09:22:42;;;;;;;;;;;;;;;14.14;43.51;99443.06;1085788;54;19950;-78
2023/03/17 09:23:45;;;;;;;;;;;;;;;14.35;43.44;99453.13;1085027;54;19973;-78
2023/03/17 09:24:46;;;;;;;;;;;;;;;14.48;42.53;99450.63;1084627;54;19977;-78
2023/03/17 09:25:50;;;;;;;;;;;;;;;14.66;43.42;99444.91;1084768;54;19958;-79
2023/03/17 09:26:58;;;;;;;;;;;;;;;14.74;43.18;99449.34;1084293;54;19947;-79
2023/03/17 09:28:00;;;;;;;;;;;;;;;14.89;42.84;99445.81;1085346;54;19957;-79
2023/03/17 09:29:04;;;;;;;;;;;;;;;14.96;42.32;99439.50;1085217;54;19950;-79
2023/03/17 09:30:06;;;;;;;;;;;;;;;14.98;41.83;99436.63;1084776;54;20513;-80
2023/03/17 09:31:11;;;;;;;;;;;;;;;15.07;42.51;99440.88;1084952;54;20894;-78
2023/03/17 09:32:17;;;;;;;;;;;;;;;14.99;41.75;99432.91;1084804;54;19950;-78
2023/03/17 09:33:21;;;;;;;;;;;;;;;15.05;42.10;99426.75;1084902;54;19946;-79
2023/03/17 09:34:24;;;;;;;;;;;;;;;15.10;42.28;99432.44;1085010;54;20524;-78
2023/03/17 09:35:30;;;;;;;;;;;;;;;15.19;42.41;99432.31;1085936;54;19954;-79
2023/03/17 09:36:31;;;;;;;;;;;;;;;15.19;41.00;99426.94;1086441;54;19973;-78
2023/03/17 09:37:36;;;;;;;;;;;;;;;15.25;42.03;99426.16;1087667;54;19942;-78
2023/03/17 09:38:40;;;;;;;;;;;;;;;15.28;40.35;99436.56;1087631;54;19958;-78
2023/03/17 09:39:43;;;;;;;;;;;;;;;15.39;40.85;99436.06;1088209;47;19939;-77
2023/03/17 09:40:47;;;;;;;;;;;;;;;15.35;41.45;99429.38;1088170;47;19923;-78
2023/03/17 09:41:58;;;;;;;;;;;;;;;15.31;40.84;99430.75;1087735;54;19941;-78
2023/03/17 09:43:08;;;;;;;;;;;;;;;15.35;40.79;99425.84;1087724;54;19950;-79
2023/03/17 09:44:14;;;;;;;;;;;;;;;15.47;40.51;99421.63;1087054;54;19938;-78
2023/03/17 09:45:26;;;;;;;;;;;;;;;15.46;40.94;99421.81;1087770;54;19939;-79
2023/03/17 09:46:33;;;;;;;;;;;;;;;15.85;40.75;99421.38;1087658;54;20000;-80
2023/03/17 09:47:54;;;;;;;;;;;;;;;15.97;40.51;99418.97;1087686;54;19942;-80
2023/03/17 09:48:58;;;;;;;;;;;;;;;16.11;40.02;99414.50;1087581;54;19969;-80
2023/03/17 09:50:07;;;;;;;;;;;;;;;15.99;39.45;99416.09;1087774;47;19953;-80
2023/03/17 09:51:09;;;;;;;;;;;;;;;15.90;39.09;99415.41;1086916;54;19951;-79
2023/03/17 09:52:17;;;;;;;;;;;;;;;16.04;40.12;99425.28;1086719;54;19942;-78
2023/03/17 09:53:20;;;;;;;;;;;;;;;16.18;38.67;99426.19;1087250;47;19950;-79
2023/03/17 09:54:27;;;;;;;;;;;;;;;16.16;38.33;99427.41;1087127;54;19950;-81
2023/03/17 09:55:29;;;;;;;;;;;;;;;16.10;38.35;99418.25;1087020;54;19946;-80
2023/03/17 09:56:34;;;;;;;;;;;;;;;16.18;38.57;99417.25;1087044;47;19957;-80
2023/03/17 09:57:36;;;;;;;;;;;;;;;16.41;38.67;99408.09;1085345;54;19950;-79
2023/03/17 09:58:43;;;;;;;;;;;;;;;16.59;38.28;99411.09;1085263;54;20308;-80
2023/03/17 09:59:47;;;;;;;;;;;;;;;16.72;37.91;99410.31;1085368;54;19958;-80
2023/03/17 10:00:49;;;;;;;;;;;;;;;16.73;37.75;99405.75;1085192;54;19950;-79
2023/03/17 10:01:52;;;;;;;;;;;;;;;16.63;37.74;99406.13;1085934;54;20030;-80
2023/03/17 10:03:00;;;;;;;;;;;;;;;16.65;37.80;99409.47;1086841;54;19951;-79
2023/03/17 10:04:08;;;;;;;;;;;;;;;16.95;37.59;99401.94;1086164;54;19951;-80
2023/03/17 10:05:16;;;;;;;;;;;;;;;17.12;37.11;99399.72;1085562;47;19947;-79
2023/03/17 10:06:26;;;;;;;;;;;;;;;17.03;37.09;99398.22;1085565;39;20361;-80
2023/03/17 10:07:41;;;;;;;;;;;;;;;16.87;36.83;99396.69;1085165;54;20558;-81
2023/03/17 10:08:48;;;;;;;;;;;;;;;16.89;37.17;99397.31;1086410;54;20006;-80
2023/03/17 10:09:53;;;;;;;;;;;;;;;17.10;37.94;99390.13;1085743;54;19950;-80
2023/03/17 10:10:59;;;;;;;;;;;;;;;17.44;37.20;99391.03;1085538;54;19956;-80
2023/03/17 10:12:04;;;;;;;;;;;;;;;17.65;37.04;99398.13;1086278;54;19950;-79
2023/03/17 10:13:15;;;;;;;;;;;;;;;17.71;36.77;99391.88;1086109;39;20456;-80
2023/03/17 10:14:28;;;;;;;;;;;;;;;17.27;36.05;99391.44;1085978;39;20468;-80
2023/03/17 10:15:56;;;;;;;;;;;;;;;17.17;36.74;99385.59;1085676;54;20453;-80
2023/03/17 10:17:02;;;;;;;;;;;;;;;17.01;36.17;99386.78;1086118;39;20697;-80
2023/03/17 10:18:25;;;;;;;;;;;;;;;16.90;36.22;99388.19;1085452;54;19950;-78
2023/03/17 10:19:42;;;;;;;;;;;;;;;17.19;36.64;99382.69;1084664;54;19950;-81
2023/03/17 10:20:55;;;;;;;;;;;;;;;17.45;36.78;99387.31;1086312;54;19947;-80
2023/03/17 10:21:59;;;;;;;;;;;;;;;17.49;35.59;99385.84;1086259;54;19950;-79
2023/03/17 10:23:08;;;;;;;;;;;;;;;17.74;36.06;99379.84;1086670;54;19951;-79
2023/03/17 10:24:17;;;;;;;;;;;;;;;17.98;35.92;99375.69;1086693;54;19943;-81
2023/03/17 10:25:21;;;;;;;;;;;;;;;17.95;35.31;99386.06;1086955;46;20519;-79
2023/03/17 10:26:40;;;;;;;;;;;;;;;18.16;35.52;99383.16;1087290;54;19957;-78
2023/03/17 10:27:44;;;;;;;;;;;;;;;18.15;35.21;99375.25;1087002;54;19943;-79
2023/03/17 10:28:51;;;;;;;;;;;;;;;18.01;34.13;99374.44;1087115;54;19950;-80
2023/03/17 10:29:55;;;;;;;;;;;;;;;17.96;34.13;99376.91;1086903;54;19951;-80
2023/03/17 10:31:11;;;;;;;;;;;;;;;18.18;34.19;99370.25;1086661;54;19974;-80
2023/03/17 10:32:12;;;;;;;;;;;;;;;18.26;34.15;99365.66;1087656;47;20296;-79
2023/03/17 10:33:24;;;;;;;;;;;;;;;18.49;34.14;99363.31;1087564;46;20014;-80
2023/03/17 10:34:31;;;;;;;;;;;;;;;18.72;33.78;99364.66;1086693;54;20014;-80
2023/03/17 10:35:37;;;;;;;;;;;;;;;18.88;33.19;99357.09;1086352;54;19950;-80
2023/03/17 10:36:43;;;;;;;;;;;;;;;18.64;32.86;99351.38;1087399;54;19958;-81
2023/03/17 10:37:49;;;;;;;;;;;;;;;18.94;33.35;99356.28;1085380;54;19994;-80
2023/03/17 10:38:54;;;;;;;;;;;;;;;19.09;33.26;99359.50;1085349;54;19947;-80
2023/03/17 10:40:09;;;;;;;;;;;;;;;19.12;32.45;99352.84;1085607;46;19946;-79
2023/03/17 10:41:13;;;;;;;;;;;;;;;18.86;32.73;99357.31;1085542;54;19947;-78
2023/03/17 10:42:23;;;;;;;;;;;;;;;18.95;32.35;99347.91;1085623;46;20033;-79
2023/03/17 10:43:27;;;;;;;;;;;;;;;19.19;33.36;99348.22;1085651;54;19951;-80
2023/03/17 10:44:40;;;;;;;;;;;;;;;19.28;32.73;99346.03;1085512;54;20035;-80
2023/03/17 10:45:48;;;;;;;;;;;;;;;19.25;31.58;99347.31;1086214;54;19954;-80
2023/03/17 10:46:54;;;;;;;;;;;;;;;19.08;31.46;99347.00;1086720;46;19958;-80
2023/03/17 10:48:01;;;;;;;;;;;;;;;18.84;32.36;99345.88;1086485;54;19946;-80
2023/03/17 10:49:06;;;;;;;;;;;;;;;18.91;32.32;99351.25;1086389;54;19950;-79
2023/03/17 10:50:20;;;;;;;;;;;;;;;18.96;32.21;99348.75;1087403;39;20433;-79
2023/03/17 10:51:32;;;;;;;;;;;;;;;19.27;32.75;99344.41;1086061;54;19977;-79
2023/03/17 10:52:37;;;;;;;;;;;;;;;19.36;32.25;99339.53;1085497;54;19951;-79
2023/03/17 10:53:42;;;;;;;;;;;;;;;19.20;32.05;99339.03;1085727;47;19966;-79
2023/03/17 10:54:46;;;;;;;;;;;;;;;19.29;32.56;99345.00;1085863;54;19950;-79
2023/03/17 10:55:54;;;;;;;;;;;;;;;19.31;32.50;99341.03;1085659;54;19950;-78
2023/03/17 10:56:59;;;;;;;;;;;;;;;19.27;32.19;99345.22;1086072;54;19950;-79
2023/03/17 10:58:04;;;;;;;;;;;;;;;19.42;32.37;99341.38;1085849;54;19951;-79
2023/03/17 10:59:07;;;;;;;;;;;;;;;19.20;31.94;99349.03;1085621;54;20006;-79
2023/03/17 11:00:14;;;;;;;;;;;;;;;19.15;31.91;99347.81;1086924;54;19963;-80
2023/03/17 11:01:22;;;;;;;;;;;;;;;19.13;32.72;99349.06;1089469;46;20006;-80
2023/03/17 11:02:25;;;;;;;;;;;;;;;19.02;32.54;99347.88;1088179;54;19954;-80
2023/03/17 11:03:32;;;;;;;;;;;;;;;18.65;32.18;99337.66;1087461;54;19943;-79
2023/03/17 11:04:38;;;;;;;;;;;;;;;18.63;32.37;99344.28;1085803;54;19974;-79
2023/03/17 11:05:42;;;;;;;;;;;;;;;18.83;32.60;99342.34;1085726;54;19946;-79
2023/03/17 11:06:43;;;;;;;;;;;;;;;18.46;32.83;99344.78;1085607;54;19952;-80
2023/03/17 11:07:47;;;;;;;;;;;;;;;18.35;32.81;99337.31;1084702;54;19946;-79
2023/03/17 11:08:49;;;;;;;;;;;;;;;18.29;32.99;99338.19;1084811;54;19946;-79
2023/03/17 11:09:53;;;;;;;;;;;;;;;18.57;33.18;99331.63;1084987;54;20441;-80
2023/03/17 11:10:56;;;;;;;;;;;;;;;18.59;32.79;99330.38;1084626;54;19947;-79
2023/03/17 11:12:03;;;;;;;;;;;;;;;18.68;32.83;99337.19;1084617;54;19962;-80
2023/03/17 11:13:04;;;;;;;;;;;;;;;18.78;32.93;99339.47;1084696;54;19962;-79
2023/03/17 11:14:12;;;;;;;;;;;;;;;18.72;32.51;99334.88;1084650;54;19950;-80
2023/03/17 11:15:15;;;;;;;;;;;;;;;18.64;32.84;99329.72;1084617;54;19946;-79
2023/03/17 11:16:22;;;;;;;;;;;;;;;18.62;33.28;99326.38;1084996;54;20450;-79
2023/03/17 11:17:30;;;;;;;;;;;;;;;18.62;33.01;99315.56;1084900;54;20037;-79
2023/03/17 11:18:37;;;;;;;;;;;;;;;18.52;33.49;99316.84;1084834;54;20563;-79
2023/03/17 11:19:46;;;;;;;;;;;;;;;18.47;33.33;99321.25;1086183;54;19951;-80
2023/03/17 11:20:54;;;;;;;;;;;;;;;18.34;33.63;99322.97;1086381;54;19947;-82
2023/03/17 11:26:53;;;;;;;;;;;;;;;18.21;34.10;99315.75;1087696;54;19930;-79
2023/03/17 11:28:02;;;;;;;;;;;;;;;17.99;34.36;99314.31;1087965;54;19950;-79
2023/03/17 11:43:39;;;;;;;;;;;;;;;17.97;35.08;99302.88;1087406;54;19950;-81
2023/03/17 11:45:01;;;;;;;;;;;;;;;18.01;34.81;99296.03;1088511;46;19943;-81
2023/03/17 11:46:07;;;;;;;;;;;;;;;18.04;34.66;99301.03;1088065;54;19923;-81
2023/03/17 11:47:21;;;;;;;;;;;;;;;18.08;34.91;99300.38;1090174;46;19927;-82
2023/03/17 11:48:39;;;;;;;;;;;;;;;18.04;34.72;99296.44;1088553;46;19943;-83
2023/03/17 11:49:44;;;;;;;;;;;;;;;17.98;34.98;99297.28;1088241;46;19947;-83
2023/03/17 11:51:09;;;;;;;;;;;;;;;17.90;34.93;99300.19;1088143;54;19938;-82
2023/03/17 11:52:29;;;;;;;;;;;;;;;17.87;35.15;99303.31;1087967;54;19943;-80
2023/03/17 12:07:55;;;;;;;;;;;;;;;17.76;35.26;99288.53;1088550;46;19946;-83
2023/03/17 12:09:54;;;;;;;;;;;;;;;17.81;35.39;99288.75;1089785;46;20093;-82
2023/03/17 12:11:45;;;;;;;;;;;;;;;17.81;34.87;99282.50;1087725;54;19958;-81
2023/03/17 12:12:58;;;;;;;;;;;;;;;17.83;34.69;99275.88;1087469;54;19978;-81
2023/03/17 12:17:14;;;;;;;;;;;;;;;17.91;35.32;99286.44;1087619;54;20790;-82
2023/03/17 12:18:41;;;;;;;;;;;;;;;17.99;35.09;99281.88;1087837;54;19942;-82
2023/03/17 12:20:00;;;;;;;;;;;;;;;17.92;34.57;99280.00;1087596;54;19943;-81
2023/03/17 12:21:35;;;;;;;;;;;;;;;17.91;34.89;99278.34;1087580;47;19923;-82
2023/03/17 12:48:25;;;;;;;;;;;;;;;18.21;34.29;99233.75;1088320;54;19945;-82
2023/03/17 12:49:39;;;;;;;;;;;;;;;18.23;34.22;99235.19;1088381;46;19953;-82
2023/03/17 12:56:01;;;;;;;;;;;;;;;;;;;;;
2023/03/17 12:59:25;;;;;;;;;;;;;;;18.37;34.13;99235.94;1088154;54;19943;-81
2023/03/17 13:00:38;;;;;;;;;;;;;;;18.44;33.83;99230.50;1089313;46;19946;-81
2023/03/17 13:02:04;;;;;;;;;;;;;;;18.47;33.97;99226.53;1088204;54;19945;-81
2023/03/17 13:06:25;;;;;;;;;;;;;;;;;;;;;
2023/03/17 13:16:40;;;;;;;;;;;;;;;18.22;34.36;99206.50;1087763;54;19938;-82
2023/03/17 13:17:46;;;;;;;;;;;;;;;18.28;34.56;99207.50;1088234;54;19966;-83
2023/03/17 13:25:57;;;;;;;;;;;;;;;18.50;34.05;99188.22;1087964;54;19961;-82
2023/03/17 13:35:14;;;;;;;;;;;;;;;18.58;33.67;99176.31;1088167;54;19926;-81
2023/03/17 13:36:30;;;;;;;;;;;;;;;18.68;33.93;99174.78;1088064;54;19942;-81
2023/03/17 13:43:21;;;;;;;;;;;;;;;18.94;34.23;99166.72;1087683;54;19927;-81
2023/03/17 13:51:15;;;;;;;;;;;;;;;19.10;32.28;99165.31;1087902;54;19998;-83
2023/03/17 14:00:33;;;;;;;;;;;;;;;19.38;33.86;99150.47;1090028;47;19935;-81
2023/03/17 14:05:11;;;;;;;;;;;;;;;19.49;33.46;99137.00;1087361;54;19966;-81
2023/03/17 14:11:29;;;;;;;;;;;;;;;19.64;32.92;99133.91;1087856;54;19946;-82
2023/03/17 14:12:38;;;;;;;;;;;;;;;19.65;33.15;99134.72;1088259;47;19966;-81
2023/03/17 14:13:42;;;;;;;;;;;;;;;19.62;32.79;99135.19;1092426;47;19954;-80
2023/03/17 14:14:51;;;;;;;;;;;;;;;19.54;32.69;99127.38;1090679;47;19950;-81
2023/03/17 14:15:55;;;;;;;;;;;;;;;19.52;33.02;99132.19;1087975;54;20011;-81
2023/03/17 14:17:02;;;;;;;;;;;;;;;19.60;32.90;99132.69;1087677;54;19950;-81
2023/03/17 14:18:07;;;;;;;;;;;;;;;19.66;33.17;99120.13;1087799;54;19949;-80
2023/03/17 14:31:13;;;;;;;;;;;;;;;;;;;;;
2023/03/17 14:45:51;;;;;;;;;;;;;;;19.77;33.31;99111.22;1087601;54;19966;-82
2023/03/17 15:00:25;;;;;;;;;;;;;;;19.70;34.93;99080.66;1087926;54;19947;-82
2023/03/17 15:04:36;;;;;;;;;;;;;;;19.67;35.83;99100.09;1087833;54;19943;-80
2023/03/17 15:11:02;;;;;;;;;;;;;;;19.45;36.74;99084.31;1087871;54;19945;-82
2023/03/17 15:14:22;;;;;;;;;;;;;;;19.46;37.04;99083.25;1088028;54;19938;-82
2023/03/17 15:15:43;;;;;;;;;;;;;;;19.44;37.22;99079.94;1088513;46;20005;-81
